Time;durP1;ratioP1;P1;durP2;ratioP2;P2;SDS_P1;SDS_P2;PMS_P1;PMS_P2;Temp;Humidity;BMP_temperature;BMP_pressure;BME280_temperature;BME280_humidity;BME280_pressure;Samples;Min_cycle;Max_cycle;Signal;HPM_P1;HPM_P2
2023/01/14 00:00:49;;;;;;;4.53;1.43;;;19.10;43.00;;;;;;4996138;28;20435;-72
2023/01/14 00:03:15;;;;;;;1.90;1.10;;;19.20;43.00;;;;;;5011454;28;20230;-72
2023/01/14 00:05:41;;;;;;;1.27;1.17;;;19.10;43.00;;;;;;5011758;28;20219;-72
2023/01/14 00:08:07;;;;;;;1.20;1.10;;;19.10;43.30;;;;;;5014347;28;20255;-72
2023/01/14 00:10:33;;;;;;;2.13;1.43;;;19.10;43.00;;;;;;5011680;28;21028;-72
2023/01/14 00:12:58;;;;;;;2.40;1.17;;;19.10;43.00;;;;;;5009390;28;20223;-72
2023/01/14 00:15:24;;;;;;;1.30;1.03;;;19.10;43.00;;;;;;5009944;28;20642;-71
2023/01/14 00:17:50;;;;;;;1.60;1.10;;;19.10;43.00;;;;;;5007699;28;20735;-72
2023/01/14 00:20:16;;;;;;;1.30;1.10;;;19.10;43.00;;;;;;5006924;28;20586;-72
2023/01/14 00:22:41;;;;;;;4.50;1.37;;;19.10;43.00;;;;;;5013321;28;20449;-71
2023/01/14 00:25:07;;;;;;;1.40;1.07;;;19.10;43.00;;;;;;5012157;28;20245;-71
2023/01/14 00:27:33;;;;;;;2.07;1.20;;;19.10;42.90;;;;;;5013749;28;21409;-72
2023/01/14 00:29:59;;;;;;;1.37;1.00;;;19.10;43.00;;;;;;5012528;28;20436;-72
2023/01/14 00:32:24;;;;;;;2.40;1.07;;;19.10;43.00;;;;;;5010375;28;20569;-71
2023/01/14 00:34:50;;;;;;;1.53;1.43;;;19.10;43.00;;;;;;5011149;28;20483;-72
2023/01/14 00:37:15;;;;;;;1.63;1.20;;;19.10;43.00;;;;;;5013697;28;20317;-70
2023/01/14 00:39:41;;;;;;;1.33;1.20;;;19.10;43.00;;;;;;5011178;28;20305;-72
2023/01/14 00:42:06;;;;;;;1.50;0.90;;;19.10;43.00;;;;;;5011135;28;20226;-72
2023/01/14 00:44:32;;;;;;;1.70;1.50;;;19.10;43.10;;;;;;5011259;28;20360;-71
2023/01/14 00:46:57;;;;;;;1.30;1.13;;;19.10;43.00;;;;;;5009375;28;20878;-72
2023/01/14 00:49:24;;;;;;;2.50;1.27;;;19.10;43.00;;;;;;5011563;28;20272;-71
2023/01/14 00:51:50;;;;;;;1.30;1.00;;;19.10;43.00;;;;;;5011708;28;20689;-72
2023/01/14 00:54:16;;;;;;;1.73;1.17;;;19.10;43.00;;;;;;5011037;28;20990;-72
2023/01/14 00:56:42;;;;;;;1.13;1.00;;;19.10;43.00;;;;;;4993133;28;20562;-72
2023/01/14 00:59:18;;;;;;;1.10;1.00;;;19.10;43.00;;;;;;5010916;28;20567;-72
2023/01/14 01:01:45;;;;;;;2.90;1.20;;;19.10;43.00;;;;;;5011728;28;20951;-72
2023/01/14 01:04:10;;;;;;;4.37;1.20;;;19.10;43.00;;;;;;5009330;28;20460;-72
2023/01/14 01:06:36;;;;;;;2.00;1.20;;;19.10;42.90;;;;;;5008926;28;21063;-71
2023/01/14 01:09:03;;;;;;;1.30;1.10;;;19.10;42.90;;;;;;4992543;28;20622;-72
2023/01/14 01:11:29;;;;;;;1.20;1.10;;;19.10;42.80;;;;;;5010802;28;20219;-72
2023/01/14 01:13:56;;;;;;;1.63;1.30;;;19.10;43.00;;;;;;5013867;28;20448;-72
2023/01/14 01:16:24;;;;;;;2.50;1.10;;;19.10;42.90;;;;;;5008670;28;20417;-71
2023/01/14 01:18:51;;;;;;;1.70;1.20;;;19.10;42.80;;;;;;5012307;28;20436;-72
2023/01/14 01:21:17;;;;;;;1.87;1.53;;;19.10;42.80;;;;;;5012697;28;20419;-72
2023/01/14 01:23:44;;;;;;;1.30;1.00;;;19.10;42.80;;;;;;5015522;28;20539;-72
2023/01/14 01:26:13;;;;;;;2.40;1.10;;;19.10;42.80;;;;;;4999067;28;20480;-71
2023/01/14 01:28:38;;;;;;;1.20;0.90;;;19.10;42.80;;;;;;5014737;28;20847;-71
2023/01/14 01:31:10;;;;;;;1.77;1.20;;;19.10;42.80;;;;;;4998174;28;20468;-71
2023/01/14 01:33:36;;;;;;;1.77;1.43;;;19.10;42.80;;;;;;5014711;28;20590;-72
2023/01/14 01:36:05;;;;;;;2.17;1.40;;;19.10;42.80;;;;;;5015442;28;21390;-72
2023/01/14 01:38:31;;;;;;;1.10;1.00;;;19.10;42.80;;;;;;5013400;28;20219;-72
2023/01/14 01:40:58;;;;;;;2.30;1.00;;;19.10;42.80;;;;;;5016311;28;21158;-72
2023/01/14 01:43:26;;;;;;;2.60;1.10;;;19.10;42.80;;;;;;5014998;28;20465;-72
2023/01/14 01:45:52;;;;;;;1.57;1.00;;;19.10;42.80;;;;;;5012530;28;20819;-71
2023/01/14 01:48:25;;;;;;;2.90;1.50;;;19.10;42.80;;;;;;5012795;28;20945;-72
2023/01/14 01:51:02;;;;;;;2.00;1.23;;;19.10;42.80;;;;;;5015123;28;20508;-72
2023/01/14 01:53:28;;;;;;;1.73;1.10;;;19.10;43.60;;;;;;5014094;28;20456;-72
2023/01/14 01:55:56;;;;;;;1.70;1.13;;;19.10;42.80;;;;;;5016628;28;20468;-71
2023/01/14 01:58:23;;;;;;;1.87;1.50;;;19.10;42.80;;;;;;5013673;28;20456;-72
2023/01/14 02:00:48;;;;;;;1.30;1.10;;;19.10;42.80;;;;;;4999353;28;20455;-72
2023/01/14 02:03:22;;;;;;;2.13;1.40;;;19.10;42.90;;;;;;5015841;28;20811;-72
2023/01/14 02:05:49;;;;;;;3.27;1.10;;;19.10;42.80;;;;;;4999175;28;22032;-72
2023/01/14 02:08:15;;;;;;;2.10;1.20;;;19.10;42.80;;;;;;4997675;28;20477;-72
2023/01/14 02:11:25;;;;;;;2.43;1.30;;;19.10;42.80;;;;;;5009950;28;20870;-72
2023/01/14 02:13:50;;;;;;;1.30;1.00;;;19.10;42.80;;;;;;4980021;28;20836;-71
2023/01/14 02:16:37;;;;;;;2.80;1.20;;;19.10;42.80;;;;;;5011294;28;20441;-72
2023/01/14 02:19:17;;;;;;;2.17;1.20;;;19.10;42.80;;;;;;5011631;28;20298;-72
2023/01/14 02:22:17;;;;;;;1.70;1.20;;;19.10;42.80;;;;;;5013307;28;21220;-71
2023/01/14 02:25:01;;;;;;;1.57;1.17;;;19.10;42.80;;;;;;5014125;28;20561;-72
2023/01/14 02:27:49;;;;;;;1.13;1.00;;;19.10;42.80;;;;;;5013515;28;20494;-72
2023/01/14 02:30:17;;;;;;;2.87;1.20;;;19.10;42.80;;;;;;4996218;28;20456;-72
2023/01/14 02:33:11;;;;;;;1.23;1.00;;;19.10;42.90;;;;;;5013193;28;20474;-70
2023/01/14 02:35:55;;;;;;;1.40;1.17;;;19.10;42.90;;;;;;4994986;28;20837;-71
2023/01/14 02:39:01;;;;;;;1.23;0.93;;;19.10;42.80;;;;;;5014515;28;20428;-72
2023/01/14 02:44:52;;;;;;;3.90;1.63;;;19.00;42.80;;;;;;5013277;28;20438;-72
2023/01/14 02:47:23;;;;;;;1.53;1.20;;;19.00;42.80;;;;;;5011981;28;20423;-72
2023/01/14 02:49:52;;;;;;;1.30;1.00;;;19.00;42.80;;;;;;5013899;28;20460;-72
2023/01/14 02:52:18;;;;;;;1.43;0.97;;;19.00;42.80;;;;;;5013042;28;20427;-72
2023/01/14 02:55:00;;;;;;;1.30;1.10;;;19.10;42.80;;;;;;5013647;28;20426;-72
2023/01/14 02:57:46;;;;;;;1.00;0.90;;;19.10;42.80;;;;;;5013915;28;20230;-72
2023/01/14 03:00:21;;;;;;;1.47;1.10;;;19.10;42.80;;;;;;5014151;28;20427;-71
2023/01/14 03:02:54;;;;;;;1.50;1.00;;;19.10;42.70;;;;;;5013250;28;20446;-72
2023/01/14 03:05:31;;;;;;;1.17;0.90;;;19.10;42.70;;;;;;5014081;28;20818;-72
2023/01/14 03:07:59;;;;;;;2.27;1.07;;;19.10;42.70;;;;;;5014287;28;20440;-72
2023/01/14 03:10:33;;;;;;;1.10;1.00;;;19.10;42.70;;;;;;5008728;28;20467;-72
2023/01/14 03:13:16;;;;;;;1.40;1.00;;;19.10;42.70;;;;;;5007980;28;20463;-72
2023/01/14 03:15:52;;;;;;;1.10;1.00;;;19.10;42.70;;;;;;5009963;28;20525;-71
2023/01/14 03:18:25;;;;;;;2.80;1.10;;;19.10;42.70;;;;;;5012801;28;20440;-72
2023/01/14 03:21:09;;;;;;;1.37;1.17;;;19.10;42.70;;;;;;5007804;28;20545;-71
2023/01/14 03:23:49;;;;;;;0.87;0.83;;;19.10;42.60;;;;;;5014900;28;20458;-72
2023/01/14 03:26:15;;;;;;;1.67;1.30;;;19.10;42.70;;;;;;5013624;28;20472;-72
2023/01/14 03:28:49;;;;;;;1.50;1.10;;;19.10;42.70;;;;;;5013272;28;20467;-72
2023/01/14 03:31:23;;;;;;;1.77;1.20;;;19.10;42.60;;;;;;5012439;28;20834;-72
2023/01/14 03:33:55;;;;;;;1.43;1.30;;;19.10;42.70;;;;;;5008923;28;20431;-72
2023/01/14 03:36:23;;;;;;;1.10;1.00;;;19.10;42.70;;;;;;5012593;28;20447;-72
2023/01/14 03:38:56;;;;;;;1.20;1.10;;;19.10;42.70;;;;;;5011550;28;21041;-72
2023/01/14 03:44:19;;;;;;;1.63;1.20;;;19.10;42.70;;;;;;5011584;28;20463;-71
2023/01/14 03:46:44;;;;;;;1.90;1.00;;;19.10;42.70;;;;;;5011331;28;20464;-72
2023/01/14 03:49:10;;;;;;;1.70;1.10;;;19.10;42.60;;;;;;5011561;28;20507;-72
2023/01/14 03:52:04;;;;;;;1.10;1.00;;;19.10;42.60;;;;;;5013995;28;20310;-72
2023/01/14 03:54:45;;;;;;;1.37;1.17;;;19.10;42.60;;;;;;5011210;28;20231;-72
2023/01/14 03:57:18;;;;;;;2.73;1.30;;;19.10;42.60;;;;;;5011176;28;20578;-72
2023/01/14 04:00:26;;;;;;;1.20;0.90;;;19.10;42.80;;;;;;5013295;28;20491;-72
2023/01/14 04:02:54;;;;;;;1.00;0.90;;;19.10;42.60;;;;;;4933355;28;20460;-72
2023/01/14 04:05:19;;;;;;;1.70;1.00;;;19.00;42.70;;;;;;5000464;28;20486;-72
2023/01/14 04:07:51;;;;;;;1.23;1.13;;;19.10;42.70;;;;;;5014022;28;20606;-71
2023/01/14 04:10:17;;;;;;;1.47;1.37;;;19.10;42.70;;;;;;5010940;28;20262;-72
2023/01/14 04:15:29;;;;;;;1.73;1.37;;;19.10;42.60;;;;;;4976632;28;20250;-72
2023/01/14 04:17:54;;;;;;;1.63;1.00;;;19.10;42.70;;;;;;5012988;28;20897;-72
2023/01/14 04:20:20;;;;;;;1.60;1.13;;;19.10;42.70;;;;;;5011894;28;20226;-72
2023/01/14 04:22:46;;;;;;;1.20;1.00;;;19.10;42.70;;;;;;5013177;28;20234;-72
2023/01/14 04:25:12;;;;;;;1.13;0.97;;;19.10;42.70;;;;;;5015669;28;20269;-71
2023/01/14 04:27:37;;;;;;;1.00;0.90;;;19.00;42.60;;;;;;5011590;28;20277;-72
2023/01/14 04:30:04;;;;;;;0.97;0.87;;;19.00;42.60;;;;;;5015637;28;20260;-72
2023/01/14 04:32:29;;;;;;;1.00;0.87;;;19.00;42.60;;;;;;5011507;28;20219;-72
2023/01/14 04:34:55;;;;;;;1.00;0.90;;;19.00;42.60;;;;;;5013431;28;21018;-71
2023/01/14 04:37:21;;;;;;;1.27;1.00;;;19.00;42.60;;;;;;5013146;28;21199;-72
2023/01/14 04:39:46;;;;;;;1.73;1.23;;;19.00;42.60;;;;;;4993561;28;20440;-72
2023/01/14 04:42:27;;;;;;;1.20;1.03;;;19.00;42.60;;;;;;5011259;28;20230;-71
2023/01/14 04:45:03;;;;;;;1.43;0.90;;;19.10;42.60;;;;;;5013489;28;20250;-71
2023/01/14 04:47:29;;;;;;;1.77;0.87;;;19.00;42.60;;;;;;5013018;28;20862;-72
2023/01/14 04:49:55;;;;;;;1.30;0.97;;;19.00;42.60;;;;;;5011583;28;20930;-71
2023/01/14 04:52:23;;;;;;;1.30;1.03;;;19.00;42.60;;;;;;5012437;28;20492;-71
2023/01/14 04:54:50;;;;;;;1.27;1.00;;;19.10;42.70;;;;;;5012368;28;20274;-71
2023/01/14 04:57:16;;;;;;;1.30;1.00;;;19.10;42.60;;;;;;5016576;28;20482;-72
2023/01/14 04:59:41;;;;;;;1.73;1.43;;;19.10;43.30;;;;;;5017318;28;20474;-72
2023/01/14 05:02:07;;;;;;;1.30;1.20;;;19.10;42.50;;;;;;4982943;28;20218;-71
2023/01/14 05:04:32;;;;;;;1.27;1.00;;;19.10;42.50;;;;;;5012166;28;20302;-72
2023/01/14 05:06:58;;;;;;;1.47;1.03;;;19.10;42.50;;;;;;5017105;28;20227;-70
2023/01/14 05:09:24;;;;;;;2.10;1.10;;;19.10;43.10;;;;;;5018236;28;20231;-72
2023/01/14 05:11:49;;;;;;;1.40;1.10;;;19.10;42.40;;;;;;5013605;28;20223;-72
2023/01/14 05:14:15;;;;;;;1.93;0.80;;;19.10;42.40;;;;;;5014354;28;20277;-72
2023/01/14 05:16:40;;;;;;;1.20;1.00;;;19.10;42.40;;;;;;5011602;28;20277;-72
2023/01/14 05:19:06;;;;;;;1.57;1.00;;;19.10;42.40;;;;;;5016916;28;20246;-72
2023/01/14 05:21:31;;;;;;;1.33;0.97;;;19.10;42.40;;;;;;5017635;28;20588;-72
2023/01/14 05:23:57;;;;;;;1.40;0.97;;;19.20;42.50;;;;;;5015817;28;20223;-72
2023/01/14 05:26:22;;;;;;;2.30;1.10;;;19.20;42.40;;;;;;5014833;28;20230;-72
2023/01/14 05:28:48;;;;;;;1.33;0.90;;;19.20;42.40;;;;;;5011928;28;20219;-72
2023/01/14 05:31:13;;;;;;;1.40;0.90;;;19.20;42.40;;;;;;5016555;28;20219;-71
2023/01/14 05:33:39;;;;;;;1.53;1.13;;;19.20;42.50;;;;;;5013439;28;20310;-72
2023/01/14 05:36:05;;;;;;;1.50;1.00;;;19.20;42.40;;;;;;5014970;28;21011;-72
2023/01/14 05:38:31;;;;;;;2.10;1.10;;;19.20;42.50;;;;;;5014356;28;20277;-73
2023/01/14 05:40:57;;;;;;;1.23;1.10;;;19.10;42.50;;;;;;5018041;28;20818;-72
2023/01/14 05:46:12;;;;;;;1.10;1.00;;;19.20;42.40;;;;;;5017604;28;20314;-72
2023/01/14 05:48:38;;;;;;;1.30;1.20;;;19.20;42.40;;;;;;5016759;28;20472;-72
2023/01/14 05:51:04;;;;;;;1.40;1.10;;;19.20;42.50;;;;;;5017295;28;20471;-72
2023/01/14 05:53:30;;;;;;;1.77;1.00;;;19.20;42.40;;;;;;5016488;28;20218;-71
2023/01/14 05:55:57;;;;;;;1.33;0.80;;;19.20;42.40;;;;;;5016733;28;20430;-72
2023/01/14 05:58:23;;;;;;;0.90;0.80;;;19.20;42.50;;;;;;5016360;28;20441;-72
2023/01/14 06:06:28;;;;;;;1.03;0.90;;;19.20;42.40;;;;;;5017376;28;20468;-74
2023/01/14 06:08:56;;;;;;;2.27;1.10;;;19.20;42.40;;;;;;5015223;28;20521;-72
2023/01/14 06:11:24;;;;;;;1.10;0.83;;;19.20;42.40;;;;;;5013902;28;20426;-72
2023/01/14 06:13:52;;;;;;;1.50;1.20;;;19.20;42.40;;;;;;5014603;28;20466;-72
2023/01/14 06:16:18;;;;;;;1.00;0.83;;;19.20;42.40;;;;;;5017124;28;21170;-72
2023/01/14 06:18:44;;;;;;;1.10;1.00;;;19.20;42.30;;;;;;5017445;28;20532;-72
2023/01/14 06:21:12;;;;;;;1.90;0.90;;;19.20;42.30;;;;;;5017894;28;20755;-72
2023/01/14 06:23:38;;;;;;;1.73;0.93;;;19.20;42.30;;;;;;5012958;28;20476;-72
2023/01/14 06:26:07;;;;;;;2.83;1.20;;;19.20;42.40;;;;;;5010177;28;20451;-70
2023/01/14 06:28:33;;;;;;;1.30;1.10;;;19.20;42.40;;;;;;5015844;28;20419;-71
2023/01/14 06:30:58;;;;;;;1.70;0.90;;;19.20;42.30;;;;;;5015607;28;20820;-72
2023/01/14 06:33:24;;;;;;;0.80;0.80;;;19.20;42.40;;;;;;5016603;28;20223;-71
2023/01/14 06:35:50;;;;;;;1.43;1.00;;;19.20;42.70;;;;;;5013945;28;20922;-71
2023/01/14 06:38:15;;;;;;;1.10;0.93;;;19.20;42.30;;;;;;5012959;28;20596;-70
2023/01/14 06:40:42;;;;;;;1.50;0.90;;;19.20;42.30;;;;;;5014883;28;20227;-71
2023/01/14 06:43:08;;;;;;;3.27;1.00;;;19.20;42.40;;;;;;5013948;28;20312;-72
2023/01/14 06:45:34;;;;;;;1.50;0.90;;;19.20;42.40;;;;;;5015426;28;21480;-71
2023/01/14 06:48:00;;;;;;;0.80;0.70;;;19.20;42.40;;;;;;5011772;28;20522;-71
2023/01/14 06:50:26;;;;;;;1.03;0.93;;;19.20;42.40;;;;;;5014350;28;20453;-72
2023/01/14 06:52:52;;;;;;;1.27;1.00;;;19.20;42.40;;;;;;5014607;28;20700;-71
2023/01/14 06:55:19;;;;;;;1.40;0.80;;;19.20;42.30;;;;;;5012630;28;20331;-71
2023/01/14 06:57:45;;;;;;;1.10;1.00;;;19.20;42.30;;;;;;5000685;28;20994;-72
2023/01/14 07:00:12;;;;;;;2.70;1.10;;;19.20;42.30;;;;;;4997962;28;20862;-72
2023/01/14 07:02:38;;;;;;;1.40;1.20;;;19.20;42.30;;;;;;4993726;28;20453;-71
2023/01/14 07:05:04;;;;;;;1.17;0.90;;;19.20;43.10;;;;;;5015150;28;20498;-71
2023/01/14 07:07:30;;;;;;;1.27;0.87;;;19.20;42.30;;;;;;5014581;28;20444;-71
2023/01/14 07:09:55;;;;;;;1.27;1.00;;;19.20;42.30;;;;;;5013803;28;20498;-72
2023/01/14 07:12:22;;;;;;;1.27;1.00;;;19.20;43.10;;;;;;5010091;28;20227;-72
2023/01/14 07:14:47;;;;;;;1.20;1.10;;;19.20;42.30;;;;;;5011824;28;20277;-72
2023/01/14 07:17:13;;;;;;;1.40;1.00;;;19.20;42.30;;;;;;5012087;28;20460;-71
2023/01/14 07:19:38;;;;;;;2.40;1.20;;;19.20;42.30;;;;;;5013733;28;20229;-71
2023/01/14 07:22:04;;;;;;;1.30;1.20;;;19.20;42.30;;;;;;5010756;28;20215;-71
2023/01/14 07:24:30;;;;;;;1.93;1.10;;;19.20;42.30;;;;;;5011888;28;20302;-71
2023/01/14 07:26:57;;;;;;;1.30;0.87;;;19.20;42.30;;;;;;5013404;28;20236;-71
2023/01/14 07:29:23;;;;;;;1.47;1.00;;;19.20;42.30;;;;;;5009694;28;20463;-71
2023/01/14 07:31:48;;;;;;;1.13;1.03;;;19.20;42.30;;;;;;5013156;28;20246;-71
2023/01/14 07:34:14;;;;;;;1.40;1.00;;;19.20;42.30;;;;;;5007028;28;20223;-71
2023/01/14 07:36:39;;;;;;;2.87;0.90;;;19.20;42.40;;;;;;5009811;28;20227;-70
2023/01/14 07:39:05;;;;;;;1.20;0.90;;;19.20;42.30;;;;;;5010926;28;20298;-71
2023/01/14 07:41:30;;;;;;;1.03;0.93;;;19.20;42.40;;;;;;5011173;28;20309;-72
2023/01/14 07:43:56;;;;;;;1.30;1.07;;;19.20;42.30;;;;;;5011022;28;20235;-69
2023/01/14 07:46:22;;;;;;;1.80;0.83;;;19.20;42.40;;;;;;5005938;28;20226;-71
2023/01/14 07:48:47;;;;;;;1.53;0.90;;;19.20;42.30;;;;;;5009252;28;20720;-70
2023/01/14 07:51:20;;;;;;;0.97;0.70;;;19.20;42.40;;;;;;5008297;28;20269;-70
2023/01/14 07:53:46;;;;;;;1.10;0.90;;;19.20;42.30;;;;;;5008774;28;20213;-71
2023/01/14 07:56:11;;;;;;;0.97;0.80;;;19.20;42.30;;;;;;5015730;28;20496;-71
2023/01/14 07:58:37;;;;;;;1.10;1.00;;;19.20;42.30;;;;;;5013862;28;20870;-71
2023/01/14 08:01:07;;;;;;;1.27;1.07;;;19.20;42.30;;;;;;5010256;28;20636;-71
2023/01/14 08:03:33;;;;;;;1.43;1.00;;;19.20;42.30;;;;;;5008147;28;20723;-74
2023/01/14 08:06:06;;;;;;;1.27;0.83;;;19.20;42.30;;;;;;5011954;28;20419;-72
2023/01/14 08:08:32;;;;;;;3.80;1.03;;;19.20;42.30;;;;;;5014136;28;20286;-71
2023/01/14 08:11:01;;;;;;;1.03;0.87;;;19.20;42.30;;;;;;5012199;28;20455;-71
2023/01/14 08:13:28;;;;;;;1.60;1.10;;;19.20;42.30;;;;;;5007578;28;20490;-71
2023/01/14 08:15:54;;;;;;;1.20;0.90;;;19.20;42.30;;;;;;5009484;28;20427;-71
2023/01/14 08:18:20;;;;;;;1.73;1.20;;;19.20;42.30;;;;;;5010324;28;20467;-71
2023/01/14 08:20:46;;;;;;;1.90;1.03;;;19.20;42.40;;;;;;5010076;28;20796;-71
2023/01/14 08:23:11;;;;;;;1.23;1.07;;;19.20;42.30;;;;;;5010605;28;20237;-71
2023/01/14 08:25:37;;;;;;;1.20;0.90;;;19.20;42.30;;;;;;5014050;28;20219;-71
2023/01/14 08:28:02;;;;;;;1.63;0.90;;;19.20;42.30;;;;;;5015523;28;20221;-71
2023/01/14 08:30:28;;;;;;;1.47;1.10;;;19.20;42.30;;;;;;5014335;28;20245;-71
2023/01/14 08:32:54;;;;;;;2.00;1.10;;;19.20;42.30;;;;;;5012967;28;20221;-72
2023/01/14 08:35:19;;;;;;;1.27;1.00;;;19.20;42.30;;;;;;5014720;28;20230;-71
2023/01/14 08:37:45;;;;;;;2.57;1.23;;;19.20;42.50;;;;;;5010524;28;20240;-71
2023/01/14 08:40:10;;;;;;;1.37;0.93;;;19.20;42.40;;;;;;5009423;28;20643;-71
2023/01/14 08:42:36;;;;;;;4.20;1.10;;;19.20;42.40;;;;;;5014545;28;20253;-71
2023/01/14 08:45:01;;;;;;;1.00;0.83;;;19.20;42.50;;;;;;5014135;28;20691;-71
2023/01/14 08:47:30;;;;;;;1.40;0.80;;;19.20;42.50;;;;;;5011010;28;20237;-72
2023/01/14 08:49:55;;;;;;;1.70;1.07;;;19.20;42.50;;;;;;5010723;28;20264;-72
2023/01/14 08:52:21;;;;;;;2.17;0.97;;;19.20;42.50;;;;;;5010781;28;20535;-71
2023/01/14 08:54:46;;;;;;;1.13;1.00;;;19.20;42.50;;;;;;5009413;28;20227;-72
2023/01/14 08:57:12;;;;;;;1.53;0.70;;;19.20;42.60;;;;;;5004877;28;20219;-72
2023/01/14 08:59:38;;;;;;;0.90;0.73;;;19.20;42.50;;;;;;5008010;28;20296;-71
2023/01/14 09:02:04;;;;;;;1.50;1.07;;;19.20;42.50;;;;;;5005825;28;20219;-70
2023/01/14 09:04:30;;;;;;;5.13;1.20;;;19.20;42.50;;;;;;5009889;28;20871;-70
2023/01/14 09:18:02;;;;;;;2.60;1.00;;;19.20;42.60;;;;;;5009025;28;20475;-71
2023/01/14 09:20:40;;;;;;;2.03;1.00;;;19.10;42.50;;;;;;5006822;28;21074;-72
2023/01/14 09:23:08;;;;;;;7.63;1.00;;;19.10;42.50;;;;;;5012485;28;20464;-71
2023/01/14 09:49:30;;;;;;;1.27;0.90;;;19.10;42.80;;;;;;4927657;28;1270397;-87
2023/01/14 09:52:23;;;;;;;2.60;0.90;;;19.10;42.80;;;;;;4951248;28;20232;-87
2023/01/14 09:54:58;;;;;;;3.07;0.90;;;19.10;42.80;;;;;;4974017;28;20303;-87
2023/01/14 09:57:50;;;;;;;1.23;0.97;;;19.20;42.90;;;;;;4947053;28;20481;-92
2023/01/14 10:00:48;;;;;;;1.97;0.90;;;19.20;42.90;;;;;;4962390;28;20508;-88
2023/01/14 10:03:23;;;;;;;1.57;1.30;;;19.20;42.90;;;;;;4938361;28;20482;-87
2023/01/14 10:06:12;;;;;;;1.30;0.90;;;19.20;42.90;;;;;;4954823;28;20801;-87
2023/01/14 10:08:51;;;;;;;5.17;1.20;;;19.20;42.90;;;;;;4973705;28;20426;-87
2023/01/14 10:11:18;;;;;;;2.10;1.00;;;19.20;42.90;;;;;;4965939;28;20420;-87
2023/01/14 10:14:06;;;;;;;3.23;0.83;;;19.20;43.00;;;;;;4972632;28;20533;-86
2023/01/14 10:16:38;;;;;;;1.50;0.90;;;19.20;42.90;;;;;;4958511;28;21466;-87
2023/01/14 10:19:27;;;;;;;1.67;1.00;;;19.20;42.90;;;;;;4951627;28;20795;-86
2023/01/14 10:22:07;;;;;;;1.87;0.90;;;19.20;42.70;;;;;;4979006;28;20432;-87
2023/01/14 10:24:32;;;;;;;3.73;1.00;;;19.20;42.60;;;;;;4970713;28;20445;-87
2023/01/14 10:26:58;;;;;;;2.57;1.17;;;19.20;42.50;;;;;;4963862;28;20440;-88
2023/01/14 10:29:28;;;;;;;1.73;0.90;;;19.30;42.60;;;;;;4958752;28;20831;-86
2023/01/14 10:31:59;;;;;;;1.20;0.90;;;19.20;42.50;;;;;;4965234;28;20234;-86
2023/01/14 10:34:41;;;;;;;2.87;1.20;;;19.20;42.60;;;;;;4971953;28;20472;-86
2023/01/14 10:37:08;;;;;;;3.30;1.10;;;19.30;42.60;;;;;;4973499;28;21082;-86
2023/01/14 10:39:34;;;;;;;1.20;1.10;;;19.30;42.70;;;;;;4962870;28;20463;-86
2023/01/14 10:42:04;;;;;;;0.90;0.90;;;19.30;42.70;;;;;;4957564;28;20454;-87
2023/01/14 10:44:38;;;;;;;2.07;0.90;;;19.20;42.60;;;;;;4963444;28;20413;-87
2023/01/14 10:47:06;;;;;;;1.53;0.90;;;19.20;42.70;;;;;;4965566;28;20528;-87
2023/01/14 10:49:40;;;;;;;1.70;0.90;;;19.20;42.70;;;;;;4967293;28;20452;-86
2023/01/14 10:52:22;;;;;;;1.77;1.10;;;19.30;42.70;;;;;;4966338;28;20440;-86
2023/01/14 10:55:12;;;;;;;0.80;0.80;;;19.30;42.70;;;;;;4964417;28;20474;-87
2023/01/14 10:57:59;;;;;;;1.57;0.97;;;19.30;42.80;;;;;;4966219;28;20413;-87
2023/01/14 11:00:28;;;;;;;4.53;0.80;;;19.30;42.80;;;;;;4966419;28;20520;-87
2023/01/14 11:02:54;;;;;;;0.87;0.77;;;19.30;42.80;;;;;;4966707;28;20456;-87
2023/01/14 11:05:35;;;;;;;1.13;1.03;;;19.30;42.80;;;;;;4963356;28;20459;-87
2023/01/14 11:08:36;;;;;;;2.87;1.10;;;19.30;42.70;;;;;;4962212;28;20533;-86
2023/01/14 11:11:05;;;;;;;1.50;0.80;;;19.30;42.70;;;;;;4962898;28;20461;-87
2023/01/14 11:13:33;;;;;;;1.67;0.73;;;19.30;42.70;;;;;;4966598;28;20447;-87
2023/01/14 11:16:00;;;;;;;1.33;0.70;;;19.30;42.70;;;;;;4947097;28;20467;-87
2023/01/14 11:18:32;;;;;;;1.20;1.00;;;19.30;42.80;;;;;;4955191;28;21232;-86
2023/01/14 11:21:07;;;;;;;1.10;0.90;;;19.30;42.70;;;;;;4964948;28;20430;-87
2023/01/14 11:23:36;;;;;;;0.90;0.70;;;19.30;42.70;;;;;;4943960;28;20494;-87
2023/01/14 11:26:22;;;;;;;1.57;0.80;;;19.30;42.80;;;;;;4944345;28;20458;-89
2023/01/14 11:28:49;;;;;;;0.80;0.70;;;19.30;42.70;;;;;;4935404;28;20459;-87
2023/01/14 11:31:17;;;;;;;0.80;0.80;;;19.30;42.70;;;;;;4949307;28;20485;-87
2023/01/14 11:33:51;;;;;;;1.07;0.87;;;19.30;42.80;;;;;;4945897;28;20936;-86
2023/01/14 11:36:22;;;;;;;1.50;0.83;;;19.30;42.80;;;;;;4934866;28;21174;-86
2023/01/14 11:38:48;;;;;;;1.00;0.80;;;19.30;42.70;;;;;;4948440;28;20453;-87
2023/01/14 11:41:31;;;;;;;0.80;0.67;;;19.30;42.70;;;;;;4957655;28;20570;-86
2023/01/14 11:44:14;;;;;;;1.13;0.90;;;19.30;42.70;;;;;;4939799;28;20228;-86
2023/01/14 11:46:43;;;;;;;0.90;0.80;;;19.30;42.70;;;;;;4955731;28;20527;-86
2023/01/14 11:49:22;;;;;;;1.27;0.83;;;19.30;42.80;;;;;;4950439;28;20460;-90
2023/01/14 11:52:18;;;;;;;0.93;0.77;;;19.30;42.70;;;;;;4958700;28;20517;-89
2023/01/14 11:54:47;;;;;;;1.63;0.70;;;19.30;42.80;;;;;;4957444;28;20455;-90
2023/01/14 11:57:17;;;;;;;1.50;0.90;;;19.30;42.80;;;;;;4941493;28;21164;-89
2023/01/14 11:59:44;;;;;;;0.80;0.70;;;19.30;42.80;;;;;;4958302;28;20458;-88
2023/01/14 12:02:20;;;;;;;0.70;0.60;;;19.30;42.80;;;;;;4956655;28;20433;-89
2023/01/14 12:04:51;;;;;;;0.80;0.77;;;19.30;42.80;;;;;;4960999;28;20980;-90
2023/01/14 12:07:46;;;;;;;0.80;0.70;;;19.30;42.80;;;;;;4959990;28;20446;-92
2023/01/14 12:10:25;;;;;;;1.00;0.93;;;19.30;42.80;;;;;;4931834;28;20494;-89
2023/01/14 12:18:54;;;;;;;0.90;0.80;;;19.30;42.90;;;;;;4959864;28;20464;-88
2023/01/14 12:21:28;;;;;;;1.13;0.70;;;19.30;42.90;;;;;;4957743;28;20549;-89
2023/01/14 12:24:22;;;;;;;0.70;0.60;;;19.30;42.90;;;;;;4955551;28;20444;-90
2023/01/14 12:26:50;;;;;;;1.37;1.23;;;19.30;42.90;;;;;;4948081;28;20453;-88
2023/01/14 12:29:23;;;;;;;0.90;0.70;;;19.30;42.90;;;;;;4954582;28;20471;-90
2023/01/14 12:31:59;;;;;;;1.23;0.90;;;19.30;42.90;;;;;;4954034;28;20499;-90
2023/01/14 12:34:41;;;;;;;1.00;0.80;;;19.30;42.90;;;;;;4954246;28;21244;-88
2023/01/14 12:37:22;;;;;;;0.80;0.77;;;19.30;42.90;;;;;;4946539;28;20488;-90
2023/01/14 12:45:51;;;;;;;0.80;0.60;;;19.30;42.90;;;;;;4941331;28;20476;-89
2023/01/14 12:48:20;;;;;;;3.73;0.93;;;19.30;42.90;;;;;;4940373;28;20757;-88
2023/01/14 12:51:00;;;;;;;1.40;0.60;;;19.30;42.90;;;;;;4955768;28;20461;-88
2023/01/14 12:53:41;;;;;;;3.53;1.30;;;19.30;42.90;;;;;;4970059;28;20433;-90
2023/01/14 12:56:07;;;;;;;4.93;1.60;;;19.30;43.00;;;;;;4955336;28;20449;-88
2023/01/14 12:58:37;;;;;;;5.40;1.77;;;19.30;43.00;;;;;;4951063;28;20434;-89
2023/01/14 13:01:09;;;;;;;10.43;1.83;;;19.30;42.90;;;;;;4954194;28;20454;-88
2023/01/14 13:03:55;;;;;;;6.70;1.80;;;19.40;43.00;;;;;;4960327;28;20438;-88
2023/01/14 13:06:37;;;;;;;2.83;1.80;;;19.40;42.50;;;;;;4965603;28;20541;-87
2023/01/14 13:09:05;;;;;;;1.87;1.50;;;19.40;42.30;;;;;;4949130;28;20484;-88
2023/01/14 13:11:44;;;;;;;3.43;1.70;;;19.40;42.20;;;;;;4956013;28;20985;-87
2023/01/14 13:14:35;;;;;;;1.77;1.67;;;19.40;41.90;;;;;;4965442;28;20502;-87
2023/01/14 13:17:18;;;;;;;7.03;2.97;;;19.50;41.80;;;;;;4963056;28;20466;-90
2023/01/14 13:19:50;;;;;;;5.40;1.73;;;19.50;41.90;;;;;;4969146;28;20466;-88
2023/01/14 13:22:41;;;;;;;3.53;2.07;;;19.50;41.60;;;;;;4971189;28;20466;-88
2023/01/14 13:25:08;;;;;;;1.80;1.70;;;19.50;41.50;;;;;;4948747;28;20464;-88
2023/01/14 13:27:35;;;;;;;3.13;2.70;;;19.60;41.20;;;;;;4948486;28;20486;-88
2023/01/14 13:30:19;;;;;;;1.70;1.57;;;19.60;41.30;;;;;;4965660;28;20473;-88
2023/01/14 13:33:00;;;;;;;2.00;1.90;;;19.60;41.10;;;;;;4962672;28;20919;-87
2023/01/14 13:35:33;;;;;;;2.20;1.70;;;19.70;41.10;;;;;;4963499;28;20473;-88
2023/01/14 13:38:12;;;;;;;3.50;2.40;;;19.70;40.90;;;;;;4936417;28;20906;-88
2023/01/14 13:40:50;;;;;;;4.87;3.30;;;19.70;41.20;;;;;;4973122;28;20459;-87
2023/01/14 13:43:24;;;;;;;2.37;2.20;;;19.70;41.30;;;;;;4971494;28;20454;-87
2023/01/14 13:45:57;;;;;;;1.70;1.60;;;19.80;41.20;;;;;;4956388;28;20481;-88
2023/01/14 13:48:26;;;;;;;2.07;1.40;;;19.80;41.00;;;;;;4968956;28;20454;-88
2023/01/14 13:50:52;;;;;;;1.87;1.77;;;19.80;40.80;;;;;;4952237;28;20481;-88
2023/01/14 13:53:17;;;;;;;1.40;1.30;;;19.80;40.70;;;;;;4964918;28;20430;-89
2023/01/14 13:55:58;;;;;;;2.13;1.27;;;19.80;40.60;;;;;;4958025;28;20260;-87
2023/01/14 13:58:49;;;;;;;1.10;0.97;;;19.80;40.60;;;;;;4957355;28;20287;-88
2023/01/14 14:01:41;;;;;;;2.67;1.80;;;19.80;40.50;;;;;;4958052;28;20477;-87
2023/01/14 14:04:10;;;;;;;1.50;1.40;;;19.80;40.60;;;;;;4946857;28;20456;-87
2023/01/14 14:06:41;;;;;;;6.30;2.20;;;19.80;40.60;;;;;;4953514;28;20602;-90
2023/01/14 14:09:17;;;;;;;27.90;4.47;;;19.90;40.60;;;;;;4961803;28;20466;-86